Inwood, NY (11096)

7:22 PM EDT on September 21, 2014 (GMT -0400)
Valley Stream | Change Station
CLOSE
Current Station
Personal Weather Station
Location: Valley Stream, NY
Elevation: 12 ft
Nearby Weather Stations

Elev 12 ft 40.65 °N, 73.69 °W | Updated 2 minutes ago

Mostly Cloudy
Mostly Cloudy
71.1 °F
Feels Like 71.1 °F
N
1.0
Wind Variable Wind from SE
Gusts 3.0 mph

Today
High -- | Low -- °F
--% Chance of Precip.
Yesterday
High -- | Low -- °F
Precip. -- in
6:41 AM 6:53 PM
Waning Crescent, 5% visible
Pressure 29.62 in
Visibility 10.0 miles
Clouds Few 2500 ft
Scattered Clouds 14000 ft
Mostly Cloudy 22000 ft
Dew Point 69 °F
Humidity 92%
Rainfall 0.32 in
Snow Depth Not available.
UV 0 out of 12
Pollen 2.70 out of 12
Air Quality Not available.
Flu Activity Not available.
METAR KJFK 212251Z 17003KT 10SM FEW025 SCT140 BKN220 22/20 A2962 RMK AO2 SLP029 T02220200 $

More Conditions Fewer Conditions

Pressure 29.62 in
Visibility 10.0 miles
Clouds Few 2500 ft
Scattered Clouds 14000 ft
Mostly Cloudy 22000 ft
Dew Point 69 °F
Humidity 92%
Rainfall 0.32 in
Snow Depth Not available.
UV 0 out of 12
Pollen 2.70 out of 12
Air Quality Not available.
Flu Activity Not available.
METAR KJFK 212251Z 17003KT 10SM FEW025 SCT140 BKN220 22/20 A2962 RMK AO2 SLP029 T02220200 $

More Conditions Fewer Conditions

10-Day Weather Forecast

Almanac

Astronomy

Sep. 21, 2014 Rise Set
Actual Time 6:41 AM EDT 6:53 PM EDT
Civil Twilight 6:14 AM EDT 7:21 PM EDT
Nautical Twilight 5:42 AM EDT 7:53 PM EDT
Astronomical Twilight 5:09 AM EDT 8:25 PM EDT
Moon 4:12 AM EDT 5:29 PM EDT
Length of Visible Light 13h 06m
Length of Day
12h 12m
Tomorrow will be 2m 40s shorter.
Waning Crescent, 5% of the Moon is Illuminated
Today
Waning Crescent
Sep 24
New
Oct 1
First Quarter
Oct 8
Full
Oct 15
Last Quarter

Today's Extremes

State Highs State Lows

Community

WunderPhotos

Upload Photos

1,755,292 photos uploaded!

WunderBlogs® & News

Nearby

Snow Depth

Station Depth Elevation
No new snow has been reported.

Earthquake Activity

City Distance Mag. Time & Date
No recent earthquake activity has been reported nearby.
Minimum magnitude displayed is 2.5.

Coastal Water Temperatures

Place Temperature
Sandy Hook, NJ 69.1 °F
The Battery, NY 71.1 °F
Bergen Point West Reach, NJ 70.0 °F
Kings Point, NY 69.1 °F

Nearby Weather Stations